sensor_id;sensor_type;location;lat;lon;timestamp;temperature;humidity
18753;DHT22;9505;50.882;5.350;2022-09-01T00:01:11;18.30;99.90
18753;DHT22;9505;50.882;5.350;2022-09-01T00:03:43;18.30;99.90
18753;DHT22;9505;50.882;5.350;2022-09-01T00:06:16;18.20;99.90
18753;DHT22;9505;50.882;5.350;2022-09-01T00:08:50;18.10;99.90
18753;DHT22;9505;50.882;5.350;2022-09-01T00:11:17;18.10;99.90
18753;DHT22;9505;50.882;5.350;2022-09-01T00:13:43;18.00;99.90
18753;DHT22;9505;50.882;5.350;2022-09-01T00:16:09;17.90;99.90
18753;DHT22;9505;50.882;5.350;2022-09-01T00:18:42;17.90;99.90
18753;DHT22;9505;50.882;5.350;2022-09-01T00:21:12;17.80;99.90
18753;DHT22;9505;50.882;5.350;2022-09-01T00:23:38;17.70;99.90
18753;DHT22;9505;50.882;5.350;2022-09-01T00:26:04;17.70;99.90
18753;DHT22;9505;50.882;5.350;2022-09-01T00:28:35;17.70;99.90
18753;DHT22;9505;50.882;5.350;2022-09-01T00:31:02;17.70;99.90
18753;DHT22;9505;50.882;5.350;2022-09-01T00:33:28;17.70;99.90
18753;DHT22;9505;50.882;5.350;2022-09-01T00:35:54;17.60;99.90
18753;DHT22;9505;50.882;5.350;2022-09-01T00:38:20;17.60;99.90
18753;DHT22;9505;50.882;5.350;2022-09-01T00:40:46;17.50;99.90
18753;DHT22;9505;50.882;5.350;2022-09-01T00:43:38;17.40;99.90
18753;DHT22;9505;50.882;5.350;2022-09-01T00:46:08;17.40;99.90
18753;DHT22;9505;50.882;5.350;2022-09-01T00:48:35;17.30;99.90
18753;DHT22;9505;50.882;5.350;2022-09-01T00:51:03;17.30;99.90
18753;DHT22;9505;50.882;5.350;2022-09-01T00:53:29;17.20;99.90
18753;DHT22;9505;50.882;5.350;2022-09-01T00:55:55;17.10;99.90
18753;DHT22;9505;50.882;5.350;2022-09-01T00:58:21;17.00;99.90
18753;DHT22;9505;50.882;5.350;2022-09-01T01:00:48;16.90;99.90
18753;DHT22;9505;50.882;5.350;2022-09-01T01:03:16;16.80;99.90
18753;DHT22;9505;50.882;5.350;2022-09-01T01:05:52;16.70;99.90
18753;DHT22;9505;50.882;5.350;2022-09-01T01:08:27;16.60;99.90
18753;DHT22;9505;50.882;5.350;2022-09-01T01:11:09;16.50;99.90
18753;DHT22;9505;50.882;5.350;2022-09-01T01:13:55;16.40;99.90
18753;DHT22;9505;50.882;5.350;2022-09-01T01:16:22;16.40;99.90
18753;DHT22;9505;50.882;5.350;2022-09-01T01:18:49;16.30;99.90
18753;DHT22;9505;50.882;5.350;2022-09-01T01:21:35;16.30;99.90
18753;DHT22;9505;50.882;5.350;2022-09-01T01:24:25;16.10;99.90
18753;DHT22;9505;50.882;5.350;2022-09-01T01:26:52;16.10;99.90
18753;DHT22;9505;50.882;5.350;2022-09-01T01:29:20;16.00;99.90
18753;DHT22;9505;50.882;5.350;2022-09-01T01:31:46;15.90;99.90
18753;DHT22;9505;50.882;5.350;2022-09-01T01:34:18;15.90;99.90
18753;DHT22;9505;50.882;5.350;2022-09-01T01:36:44;15.80;99.90
18753;DHT22;9505;50.882;5.350;2022-09-01T01:39:15;15.80;99.90
18753;DHT22;9505;50.882;5.350;2022-09-01T01:41:43;15.80;99.90
18753;DHT22;9505;50.882;5.350;2022-09-01T01:44:15;15.70;99.90
18753;DHT22;9505;50.882;5.350;2022-09-01T01:46:44;15.70;99.90
18753;DHT22;9505;50.882;5.350;2022-09-01T01:49:10;15.60;99.90
18753;DHT22;9505;50.882;5.350;2022-09-01T01:51:38;15.60;99.90
18753;DHT22;9505;50.882;5.350;2022-09-01T01:54:04;15.50;99.90
18753;DHT22;9505;50.882;5.350;2022-09-01T01:56:32;15.40;99.90
18753;DHT22;9505;50.882;5.350;2022-09-01T01:59:02;15.40;99.90
18753;DHT22;9505;50.882;5.350;2022-09-01T02:01:29;15.30;99.90
18753;DHT22;9505;50.882;5.350;2022-09-01T02:03:58;15.30;99.90
18753;DHT22;9505;50.882;5.350;2022-09-01T02:06:26;15.20;99.90
18753;DHT22;9505;50.882;5.350;2022-09-01T02:08:55;15.10;99.90
18753;DHT22;9505;50.882;5.350;2022-09-01T02:11:24;15.00;99.90
18753;DHT22;9505;50.882;5.350;2022-09-01T02:13:53;14.90;99.90
18753;DHT22;9505;50.882;5.350;2022-09-01T02:16:27;14.80;99.90
18753;DHT22;9505;50.882;5.350;2022-09-01T02:18:53;14.80;99.90
18753;DHT22;9505;50.882;5.350;2022-09-01T02:21:21;14.80;99.90
18753;DHT22;9505;50.882;5.350;2022-09-01T02:23:56;14.80;99.90
18753;DHT22;9505;50.882;5.350;2022-09-01T02:26:33;14.80;99.90
18753;DHT22;9505;50.882;5.350;2022-09-01T02:29:01;14.90;99.90
18753;DHT22;9505;50.882;5.350;2022-09-01T02:31:30;14.90;99.90
18753;DHT22;9505;50.882;5.350;2022-09-01T02:33:57;14.90;99.90
18753;DHT22;9505;50.882;5.350;2022-09-01T02:36:23;15.00;99.90
18753;DHT22;9505;50.882;5.350;2022-09-01T02:38:50;15.00;99.90
18753;DHT22;9505;50.882;5.350;2022-09-01T02:41:17;15.00;99.90
18753;DHT22;9505;50.882;5.350;2022-09-01T02:43:45;14.90;99.90
18753;DHT22;9505;50.882;5.350;2022-09-01T02:46:12;14.90;99.90
18753;DHT22;9505;50.882;5.350;2022-09-01T02:48:41;14.90;99.90
18753;DHT22;9505;50.882;5.350;2022-09-01T02:51:12;14.90;99.90
18753;DHT22;9505;50.882;5.350;2022-09-01T02:53:39;14.90;99.90
18753;DHT22;9505;50.882;5.350;2022-09-01T02:56:08;14.90;99.90
18753;DHT22;9505;50.882;5.350;2022-09-01T02:58:37;14.90;99.90
18753;DHT22;9505;50.882;5.350;2022-09-01T03:01:20;14.80;99.90
18753;DHT22;9505;50.882;5.350;2022-09-01T03:03:50;14.80;99.90
18753;DHT22;9505;50.882;5.350;2022-09-01T03:06:17;14.80;99.90
18753;DHT22;9505;50.882;5.350;2022-09-01T03:08:49;14.70;99.90
18753;DHT22;9505;50.882;5.350;2022-09-01T03:11:15;14.70;99.90
18753;DHT22;9505;50.882;5.350;2022-09-01T03:13:42;14.60;99.90
18753;DHT22;9505;50.882;5.350;2022-09-01T03:16:08;14.60;99.90
18753;DHT22;9505;50.882;5.350;2022-09-01T03:18:34;14.50;99.90
18753;DHT22;9505;50.882;5.350;2022-09-01T03:21:01;14.50;99.90
18753;DHT22;9505;50.882;5.350;2022-09-01T03:23:28;14.50;99.90
18753;DHT22;9505;50.882;5.350;2022-09-01T03:25:56;14.40;99.90
18753;DHT22;9505;50.882;5.350;2022-09-01T03:28:22;14.40;99.90
18753;DHT22;9505;50.882;5.350;2022-09-01T03:30:53;14.30;99.90
18753;DHT22;9505;50.882;5.350;2022-09-01T03:33:20;14.30;99.90
18753;DHT22;9505;50.882;5.350;2022-09-01T03:35:47;14.20;99.90
18753;DHT22;9505;50.882;5.350;2022-09-01T03:38:14;14.20;99.90
18753;DHT22;9505;50.882;5.350;2022-09-01T03:40:45;14.30;99.90
18753;DHT22;9505;50.882;5.350;2022-09-01T03:43:11;14.30;99.90
18753;DHT22;9505;50.882;5.350;2022-09-01T03:45:39;14.30;99.90
18753;DHT22;9505;50.882;5.350;2022-09-01T03:48:06;14.30;99.90
18753;DHT22;9505;50.882;5.350;2022-09-01T03:50:40;14.30;99.90
18753;DHT22;9505;50.882;5.350;2022-09-01T03:53:15;14.40;99.90
18753;DHT22;9505;50.882;5.350;2022-09-01T03:55:44;14.40;99.90
18753;DHT22;9505;50.882;5.350;2022-09-01T03:58:12;14.40;99.90
18753;DHT22;9505;50.882;5.350;2022-09-01T04:00:41;14.40;99.90
18753;DHT22;9505;50.882;5.350;2022-09-01T04:03:09;14.40;99.90
18753;DHT22;9505;50.882;5.350;2022-09-01T04:05:37;14.30;99.90
18753;DHT22;9505;50.882;5.350;2022-09-01T04:08:06;14.20;99.90
18753;DHT22;9505;50.882;5.350;2022-09-01T04:10:36;14.20;99.90
18753;DHT22;9505;50.882;5.350;2022-09-01T04:13:06;14.20;99.90
18753;DHT22;9505;50.882;5.350;2022-09-01T04:15:36;14.10;99.90
18753;DHT22;9505;50.882;5.350;2022-09-01T04:18:03;14.10;99.90
18753;DHT22;9505;50.882;5.350;2022-09-01T04:20:39;14.10;99.90
18753;DHT22;9505;50.882;5.350;2022-09-01T04:23:17;14.00;99.90
18753;DHT22;9505;50.882;5.350;2022-09-01T04:25:57;14.00;99.90
18753;DHT22;9505;50.882;5.350;2022-09-01T04:28:30;14.00;99.90
18753;DHT22;9505;50.882;5.350;2022-09-01T04:30:59;13.90;99.90
18753;DHT22;9505;50.882;5.350;2022-09-01T04:33:31;13.90;99.90
18753;DHT22;9505;50.882;5.350;2022-09-01T04:36:04;13.80;99.90
18753;DHT22;9505;50.882;5.350;2022-09-01T04:38:30;13.80;99.90
18753;DHT22;9505;50.882;5.350;2022-09-01T04:40:57;13.70;99.90
18753;DHT22;9505;50.882;5.350;2022-09-01T04:43:23;13.70;99.90
18753;DHT22;9505;50.882;5.350;2022-09-01T04:45:49;13.60;99.90
18753;DHT22;9505;50.882;5.350;2022-09-01T04:48:17;13.60;99.90
18753;DHT22;9505;50.882;5.350;2022-09-01T04:50:44;13.50;99.90
18753;DHT22;9505;50.882;5.350;2022-09-01T04:53:10;13.50;99.90
18753;DHT22;9505;50.882;5.350;2022-09-01T04:55:38;13.40;99.90
18753;DHT22;9505;50.882;5.350;2022-09-01T04:58:09;13.40;99.90
18753;DHT22;9505;50.882;5.350;2022-09-01T05:00:39;13.40;99.90
18753;DHT22;9505;50.882;5.350;2022-09-01T05:03:04;13.30;99.90
18753;DHT22;9505;50.882;5.350;2022-09-01T05:05:42;13.30;99.90
18753;DHT22;9505;50.882;5.350;2022-09-01T05:08:09;13.30;99.90
18753;DHT22;9505;50.882;5.350;2022-09-01T05:10:41;13.20;99.90
18753;DHT22;9505;50.882;5.350;2022-09-01T05:13:12;13.20;99.90
18753;DHT22;9505;50.882;5.350;2022-09-01T05:15:39;13.20;99.90
18753;DHT22;9505;50.882;5.350;2022-09-01T05:18:14;13.20;99.90
18753;DHT22;9505;50.882;5.350;2022-09-01T05:20:41;13.20;99.90
18753;DHT22;9505;50.882;5.350;2022-09-01T05:23:09;13.30;99.90
18753;DHT22;9505;50.882;5.350;2022-09-01T05:25:39;13.30;99.90
18753;DHT22;9505;50.882;5.350;2022-09-01T05:28:07;13.40;99.90
18753;DHT22;9505;50.882;5.350;2022-09-01T05:30:35;13.60;99.90
18753;DHT22;9505;50.882;5.350;2022-09-01T05:33:02;13.70;99.90
18753;DHT22;9505;50.882;5.350;2022-09-01T05:35:29;13.80;99.90
18753;DHT22;9505;50.882;5.350;2022-09-01T05:37:55;13.90;99.90
18753;DHT22;9505;50.882;5.350;2022-09-01T05:40:23;13.90;99.90
18753;DHT22;9505;50.882;5.350;2022-09-01T05:42:49;13.90;99.90
18753;DHT22;9505;50.882;5.350;2022-09-01T05:45:15;13.90;99.90
18753;DHT22;9505;50.882;5.350;2022-09-01T05:47:43;14.00;99.90
18753;DHT22;9505;50.882;5.350;2022-09-01T05:50:10;14.10;99.90
18753;DHT22;9505;50.882;5.350;2022-09-01T05:52:38;14.30;99.90
18753;DHT22;9505;50.882;5.350;2022-09-01T05:55:04;14.40;99.90
18753;DHT22;9505;50.882;5.350;2022-09-01T05:57:34;14.60;99.90
18753;DHT22;9505;50.882;5.350;2022-09-01T06:00:06;14.90;99.90
18753;DHT22;9505;50.882;5.350;2022-09-01T06:02:42;15.60;99.90
18753;DHT22;9505;50.882;5.350;2022-09-01T06:05:08;17.60;99.90
18753;DHT22;9505;50.882;5.350;2022-09-01T06:07:35;19.60;99.90
18753;DHT22;9505;50.882;5.350;2022-09-01T06:10:07;21.20;99.90
18753;DHT22;9505;50.882;5.350;2022-09-01T06:12:33;22.50;99.90
18753;DHT22;9505;50.882;5.350;2022-09-01T06:14:59;23.80;99.90
18753;DHT22;9505;50.882;5.350;2022-09-01T06:17:27;24.40;99.90
18753;DHT22;9505;50.882;5.350;2022-09-01T06:19:55;24.80;99.90
18753;DHT22;9505;50.882;5.350;2022-09-01T06:22:21;25.40;99.90
18753;DHT22;9505;50.882;5.350;2022-09-01T06:24:49;26.20;99.90
18753;DHT22;9505;50.882;5.350;2022-09-01T06:27:16;26.80;99.90
18753;DHT22;9505;50.882;5.350;2022-09-01T06:29:44;27.00;99.90
18753;DHT22;9505;50.882;5.350;2022-09-01T06:32:12;27.50;99.90
18753;DHT22;9505;50.882;5.350;2022-09-01T06:34:39;27.20;99.20
18753;DHT22;9505;50.882;5.350;2022-09-01T06:37:06;26.90;99.90
18753;DHT22;9505;50.882;5.350;2022-09-01T06:39:32;27.20;98.40
18753;DHT22;9505;50.882;5.350;2022-09-01T06:41:59;26.50;99.30
18753;DHT22;9505;50.882;5.350;2022-09-01T06:44:27;26.30;99.90
18753;DHT22;9505;50.882;5.350;2022-09-01T06:46:55;26.90;99.10
18753;DHT22;9505;50.882;5.350;2022-09-01T06:49:21;27.50;98.90
18753;DHT22;9505;50.882;5.350;2022-09-01T06:51:58;27.90;97.20
18753;DHT22;9505;50.882;5.350;2022-09-01T06:54:23;27.50;97.40
18753;DHT22;9505;50.882;5.350;2022-09-01T06:56:50;27.40;97.60
18753;DHT22;9505;50.882;5.350;2022-09-01T06:59:17;27.90;97.10
18753;DHT22;9505;50.882;5.350;2022-09-01T07:01:43;28.50;96.50
18753;DHT22;9505;50.882;5.350;2022-09-01T07:04:09;29.10;95.20
18753;DHT22;9505;50.882;5.350;2022-09-01T07:06:35;29.20;94.90
18753;DHT22;9505;50.882;5.350;2022-09-01T07:09:02;29.60;93.60
18753;DHT22;9505;50.882;5.350;2022-09-01T07:11:32;29.90;93.10
18753;DHT22;9505;50.882;5.350;2022-09-01T07:14:03;29.50;92.80
18753;DHT22;9505;50.882;5.350;2022-09-01T07:16:32;29.80;93.10
18753;DHT22;9505;50.882;5.350;2022-09-01T07:19:00;30.20;92.40
18753;DHT22;9505;50.882;5.350;2022-09-01T07:21:28;30.20;91.00
18753;DHT22;9505;50.882;5.350;2022-09-01T07:23:54;30.00;91.50
18753;DHT22;9505;50.882;5.350;2022-09-01T07:26:22;30.40;91.50
18753;DHT22;9505;50.882;5.350;2022-09-01T07:28:50;31.10;90.50
18753;DHT22;9505;50.882;5.350;2022-09-01T07:31:25;32.10;87.80
18753;DHT22;9505;50.882;5.350;2022-09-01T07:33:53;32.10;87.80
18753;DHT22;9505;50.882;5.350;2022-09-01T07:36:20;31.40;87.30
18753;DHT22;9505;50.882;5.350;2022-09-01T07:38:46;31.10;88.00
18753;DHT22;9505;50.882;5.350;2022-09-01T07:41:19;30.70;89.40
18753;DHT22;9505;50.882;5.350;2022-09-01T07:43:46;30.00;87.70
18753;DHT22;9505;50.882;5.350;2022-09-01T07:46:16;29.90;89.40
18753;DHT22;9505;50.882;5.350;2022-09-01T07:48:42;30.40;87.70
18753;DHT22;9505;50.882;5.350;2022-09-01T07:51:11;30.10;87.90
18753;DHT22;9505;50.882;5.350;2022-09-01T07:53:37;29.80;88.70
18753;DHT22;9505;50.882;5.350;2022-09-01T07:56:08;30.50;87.90
18753;DHT22;9505;50.882;5.350;2022-09-01T07:58:36;31.50;86.70
18753;DHT22;9505;50.882;5.350;2022-09-01T08:01:16;31.90;83.60
18753;DHT22;9505;50.882;5.350;2022-09-01T08:03:47;32.20;85.80
18753;DHT22;9505;50.882;5.350;2022-09-01T08:06:15;32.20;83.90
18753;DHT22;9505;50.882;5.350;2022-09-01T08:08:46;32.40;84.60
18753;DHT22;9505;50.882;5.350;2022-09-01T08:11:27;32.90;82.20
18753;DHT22;9505;50.882;5.350;2022-09-01T08:13:54;32.80;83.50
18753;DHT22;9505;50.882;5.350;2022-09-01T08:16:28;31.70;84.20
18753;DHT22;9505;50.882;5.350;2022-09-01T08:18:55;31.10;85.90
18753;DHT22;9505;50.882;5.350;2022-09-01T08:21:21;30.50;86.90
18753;DHT22;9505;50.882;5.350;2022-09-01T08:23:50;30.20;87.20
18753;DHT22;9505;50.882;5.350;2022-09-01T08:26:17;29.30;88.90
18753;DHT22;9505;50.882;5.350;2022-09-01T08:28:43;28.30;91.60
18753;DHT22;9505;50.882;5.350;2022-09-01T08:31:11;27.90;92.70
18753;DHT22;9505;50.882;5.350;2022-09-01T08:33:38;27.30;92.70
18753;DHT22;9505;50.882;5.350;2022-09-01T08:36:06;26.60;93.30
18753;DHT22;9505;50.882;5.350;2022-09-01T08:38:32;26.30;93.80
18753;DHT22;9505;50.882;5.350;2022-09-01T08:40:59;26.20;94.90
18753;DHT22;9505;50.882;5.350;2022-09-01T08:46:26;26.10;95.50
18753;DHT22;9505;50.882;5.350;2022-09-01T08:48:55;25.80;95.30
18753;DHT22;9505;50.882;5.350;2022-09-01T08:56:32;26.20;96.60
18753;DHT22;9505;50.882;5.350;2022-09-01T08:59:00;25.90;94.90
18753;DHT22;9505;50.882;5.350;2022-09-01T09:02:01;25.70;96.00
18753;DHT22;9505;50.882;5.350;2022-09-01T09:10:25;26.60;94.90
18753;DHT22;9505;50.882;5.350;2022-09-01T09:13:16;26.50;95.50
18753;DHT22;9505;50.882;5.350;2022-09-01T09:16:09;26.90;94.20
18753;DHT22;9505;50.882;5.350;2022-09-01T09:18:49;27.20;94.70
18753;DHT22;9505;50.882;5.350;2022-09-01T09:21:21;27.20;93.10
18753;DHT22;9505;50.882;5.350;2022-09-01T09:23:56;26.60;93.70
18753;DHT22;9505;50.882;5.350;2022-09-01T09:26:22;26.60;94.20
18753;DHT22;9505;50.882;5.350;2022-09-01T09:28:48;26.70;93.70
18753;DHT22;9505;50.882;5.350;2022-09-01T09:31:34;26.50;93.50
18753;DHT22;9505;50.882;5.350;2022-09-01T09:34:11;26.50;95.20
18753;DHT22;9505;50.882;5.350;2022-09-01T09:36:40;26.80;93.80
18753;DHT22;9505;50.882;5.350;2022-09-01T09:39:17;26.50;94.10
18753;DHT22;9505;50.882;5.350;2022-09-01T09:42:01;26.40;94.50
18753;DHT22;9505;50.882;5.350;2022-09-01T09:44:30;26.70;93.20
18753;DHT22;9505;50.882;5.350;2022-09-01T09:46:57;26.80;93.30
18753;DHT22;9505;50.882;5.350;2022-09-01T09:49:31;27.40;93.80
18753;DHT22;9505;50.882;5.350;2022-09-01T09:54:33;27.80;92.20
18753;DHT22;9505;50.882;5.350;2022-09-01T10:04:55;27.10;93.40
18753;DHT22;9505;50.882;5.350;2022-09-01T10:07:30;27.00;92.30
18753;DHT22;9505;50.882;5.350;2022-09-01T10:10:00;26.90;91.90
18753;DHT22;9505;50.882;5.350;2022-09-01T10:12:28;26.70;92.30
18753;DHT22;9505;50.882;5.350;2022-09-01T10:14:59;26.60;92.50
18753;DHT22;9505;50.882;5.350;2022-09-01T10:17:30;26.70;93.10
18753;DHT22;9505;50.882;5.350;2022-09-01T10:20:02;27.20;92.50
18753;DHT22;9505;50.882;5.350;2022-09-01T10:22:32;27.50;92.60
18753;DHT22;9505;50.882;5.350;2022-09-01T10:24:59;27.40;91.30
18753;DHT22;9505;50.882;5.350;2022-09-01T10:27:29;26.80;92.70
18753;DHT22;9505;50.882;5.350;2022-09-01T10:30:02;27.30;91.80
18753;DHT22;9505;50.882;5.350;2022-09-01T10:32:36;26.80;91.90
18753;DHT22;9505;50.882;5.350;2022-09-01T10:35:04;26.90;92.70
18753;DHT22;9505;50.882;5.350;2022-09-01T10:37:30;27.20;93.00
18753;DHT22;9505;50.882;5.350;2022-09-01T10:42:39;28.40;91.30
18753;DHT22;9505;50.882;5.350;2022-09-01T10:45:36;28.90;89.40
18753;DHT22;9505;50.882;5.350;2022-09-01T10:50:49;28.40;90.00
18753;DHT22;9505;50.882;5.350;2022-09-01T10:59:09;26.90;91.20
18753;DHT22;9505;50.882;5.350;2022-09-01T11:04:12;28.20;90.10
18753;DHT22;9505;50.882;5.350;2022-09-01T11:06:43;28.50;87.20
18753;DHT22;9505;50.882;5.350;2022-09-01T11:09:39;28.70;86.80
18753;DHT22;9505;50.882;5.350;2022-09-01T11:15:49;28.30;83.40
18753;DHT22;9505;50.882;5.350;2022-09-01T11:23:03;28.50;83.30
18753;DHT22;9505;50.882;5.350;2022-09-01T11:25:42;28.70;84.10
18753;DHT22;9505;50.882;5.350;2022-09-01T11:33:51;28.00;81.00
18753;DHT22;9505;50.882;5.350;2022-09-01T11:36:45;28.10;81.70
18753;DHT22;9505;50.882;5.350;2022-09-01T11:47:07;28.90;78.50
18753;DHT22;9505;50.882;5.350;2022-09-01T11:49:44;28.80;77.90
18753;DHT22;9505;50.882;5.350;2022-09-01T11:52:14;28.10;78.50
18753;DHT22;9505;50.882;5.350;2022-09-01T11:54:42;27.50;78.90
18753;DHT22;9505;50.882;5.350;2022-09-01T11:59:53;26.60;81.00
18753;DHT22;9505;50.882;5.350;2022-09-01T12:02:28;26.90;80.90
18753;DHT22;9505;50.882;5.350;2022-09-01T12:04:56;27.50;80.80
18753;DHT22;9505;50.882;5.350;2022-09-01T12:09:59;28.60;79.80
18753;DHT22;9505;50.882;5.350;2022-09-01T12:12:34;28.70;77.20
18753;DHT22;9505;50.882;5.350;2022-09-01T12:17:31;27.80;79.80
18753;DHT22;9505;50.882;5.350;2022-09-01T12:20:18;28.40;80.80
18753;DHT22;9505;50.882;5.350;2022-09-01T12:22:44;29.00;79.30
18753;DHT22;9505;50.882;5.350;2022-09-01T12:25:36;29.40;76.00
18753;DHT22;9505;50.882;5.350;2022-09-01T12:28:03;29.10;76.80
18753;DHT22;9505;50.882;5.350;2022-09-01T12:30:30;29.30;76.20
18753;DHT22;9505;50.882;5.350;2022-09-01T12:33:01;29.20;76.00
18753;DHT22;9505;50.882;5.350;2022-09-01T12:35:28;29.10;72.70
18753;DHT22;9505;50.882;5.350;2022-09-01T12:40:49;28.50;73.90
18753;DHT22;9505;50.882;5.350;2022-09-01T12:43:36;28.90;75.00
18753;DHT22;9505;50.882;5.350;2022-09-01T12:46:04;29.00;74.80
18753;DHT22;9505;50.882;5.350;2022-09-01T12:48:36;28.90;77.00
18753;DHT22;9505;50.882;5.350;2022-09-01T12:51:15;29.00;75.10
18753;DHT22;9505;50.882;5.350;2022-09-01T12:53:59;29.10;75.90
18753;DHT22;9505;50.882;5.350;2022-09-01T12:56:33;29.00;75.20
18753;DHT22;9505;50.882;5.350;2022-09-01T12:59:13;28.80;78.00
18753;DHT22;9505;50.882;5.350;2022-09-01T13:01:40;28.50;76.00
18753;DHT22;9505;50.882;5.350;2022-09-01T13:04:24;28.50;75.30
18753;DHT22;9505;50.882;5.350;2022-09-01T13:06:51;28.50;75.70
18753;DHT22;9505;50.882;5.350;2022-09-01T13:09:17;28.70;75.30
18753;DHT22;9505;50.882;5.350;2022-09-01T13:11:44;29.20;75.80
18753;DHT22;9505;50.882;5.350;2022-09-01T13:14:12;29.80;75.40
18753;DHT22;9505;50.882;5.350;2022-09-01T13:16:38;29.70;70.80
18753;DHT22;9505;50.882;5.350;2022-09-01T13:19:04;29.00;73.60
18753;DHT22;9505;50.882;5.350;2022-09-01T13:21:32;29.00;73.10
18753;DHT22;9505;50.882;5.350;2022-09-01T13:24:00;29.00;74.30
18753;DHT22;9505;50.882;5.350;2022-09-01T13:26:26;29.10;72.50
18753;DHT22;9505;50.882;5.350;2022-09-01T13:28:54;29.40;74.40
18753;DHT22;9505;50.882;5.350;2022-09-01T13:31:20;29.60;74.30
18753;DHT22;9505;50.882;5.350;2022-09-01T13:33:45;29.80;75.40
18753;DHT22;9505;50.882;5.350;2022-09-01T13:36:11;29.70;71.80
18753;DHT22;9505;50.882;5.350;2022-09-01T13:38:36;28.50;74.10
18753;DHT22;9505;50.882;5.350;2022-09-01T13:41:03;28.20;74.30
18753;DHT22;9505;50.882;5.350;2022-09-01T13:43:29;28.40;74.40
18753;DHT22;9505;50.882;5.350;2022-09-01T13:45:56;28.60;73.70
18753;DHT22;9505;50.882;5.350;2022-09-01T13:48:21;28.30;74.50
18753;DHT22;9505;50.882;5.350;2022-09-01T13:50:49;28.50;74.20
18753;DHT22;9505;50.882;5.350;2022-09-01T13:53:15;29.00;73.90
18753;DHT22;9505;50.882;5.350;2022-09-01T13:55:42;29.30;72.80
18753;DHT22;9505;50.882;5.350;2022-09-01T13:58:08;29.10;72.80
18753;DHT22;9505;50.882;5.350;2022-09-01T14:00:37;28.90;73.50
18753;DHT22;9505;50.882;5.350;2022-09-01T14:03:12;28.70;72.60
18753;DHT22;9505;50.882;5.350;2022-09-01T14:05:41;28.60;72.90
18753;DHT22;9505;50.882;5.350;2022-09-01T14:08:09;28.30;71.10
18753;DHT22;9505;50.882;5.350;2022-09-01T14:10:38;28.40;73.00
18753;DHT22;9505;50.882;5.350;2022-09-01T14:13:06;29.10;73.50
18753;DHT22;9505;50.882;5.350;2022-09-01T14:15:32;30.10;71.70
18753;DHT22;9505;50.882;5.350;2022-09-01T14:17:59;31.30;69.90
18753;DHT22;9505;50.882;5.350;2022-09-01T14:20:28;31.80;69.80
18753;DHT22;9505;50.882;5.350;2022-09-01T14:22:56;32.10;68.10
18753;DHT22;9505;50.882;5.350;2022-09-01T14:25:22;32.30;66.60
18753;DHT22;9505;50.882;5.350;2022-09-01T14:27:48;31.30;67.60
18753;DHT22;9505;50.882;5.350;2022-09-01T14:30:26;31.60;68.20
18753;DHT22;9505;50.882;5.350;2022-09-01T14:32:52;32.10;67.60
18753;DHT22;9505;50.882;5.350;2022-09-01T14:35:21;32.40;67.70
18753;DHT22;9505;50.882;5.350;2022-09-01T14:37:51;32.30;65.50
18753;DHT22;9505;50.882;5.350;2022-09-01T14:40:18;32.50;66.00
18753;DHT22;9505;50.882;5.350;2022-09-01T14:42:47;32.60;66.40
18753;DHT22;9505;50.882;5.350;2022-09-01T14:45:15;33.20;65.70
18753;DHT22;9505;50.882;5.350;2022-09-01T14:47:43;33.20;64.80
18753;DHT22;9505;50.882;5.350;2022-09-01T14:50:09;32.50;65.30
18753;DHT22;9505;50.882;5.350;2022-09-01T14:52:35;32.80;66.30
18753;DHT22;9505;50.882;5.350;2022-09-01T14:55:03;33.20;64.60
18753;DHT22;9505;50.882;5.350;2022-09-01T14:57:29;33.40;63.50
18753;DHT22;9505;50.882;5.350;2022-09-01T14:59:56;33.40;63.50
18753;DHT22;9505;50.882;5.350;2022-09-01T15:02:21;33.50;63.20
18753;DHT22;9505;50.882;5.350;2022-09-01T15:04:51;33.00;63.80
18753;DHT22;9505;50.882;5.350;2022-09-01T15:07:17;32.60;64.40
18753;DHT22;9505;50.882;5.350;2022-09-01T15:09:42;32.50;64.10
18753;DHT22;9505;50.882;5.350;2022-09-01T15:12:08;32.60;64.40
18753;DHT22;9505;50.882;5.350;2022-09-01T15:14:35;32.90;64.80
18753;DHT22;9505;50.882;5.350;2022-09-01T15:17:01;33.10;64.20
18753;DHT22;9505;50.882;5.350;2022-09-01T15:19:26;33.20;64.40
18753;DHT22;9505;50.882;5.350;2022-09-01T15:21:52;33.10;64.50
18753;DHT22;9505;50.882;5.350;2022-09-01T15:24:18;32.50;65.60
18753;DHT22;9505;50.882;5.350;2022-09-01T15:26:43;31.90;66.30
18753;DHT22;9505;50.882;5.350;2022-09-01T15:29:11;32.20;66.50
18753;DHT22;9505;50.882;5.350;2022-09-01T15:31:38;32.80;65.40
18753;DHT22;9505;50.882;5.350;2022-09-01T15:34:04;33.20;64.40
18753;DHT22;9505;50.882;5.350;2022-09-01T15:36:32;32.90;63.60
18753;DHT22;9505;50.882;5.350;2022-09-01T15:38:59;32.40;64.70
18753;DHT22;9505;50.882;5.350;2022-09-01T15:41:28;31.90;65.60
18753;DHT22;9505;50.882;5.350;2022-09-01T15:43:54;31.80;67.10
18753;DHT22;9505;50.882;5.350;2022-09-01T15:46:21;32.00;65.50
18753;DHT22;9505;50.882;5.350;2022-09-01T15:48:47;32.00;66.10
18753;DHT22;9505;50.882;5.350;2022-09-01T15:53:52;31.90;66.80
18753;DHT22;9505;50.882;5.350;2022-09-01T15:56:18;31.90;65.30
18753;DHT22;9505;50.882;5.350;2022-09-01T15:58:45;31.60;66.90
18753;DHT22;9505;50.882;5.350;2022-09-01T16:01:11;31.40;67.50
18753;DHT22;9505;50.882;5.350;2022-09-01T16:03:36;30.90;67.10
18753;DHT22;9505;50.882;5.350;2022-09-01T16:06:02;30.10;69.70
18753;DHT22;9505;50.882;5.350;2022-09-01T16:08:28;29.80;70.90
18753;DHT22;9505;50.882;5.350;2022-09-01T16:10:54;29.90;69.70
18753;DHT22;9505;50.882;5.350;2022-09-01T16:13:20;30.20;70.90
18753;DHT22;9505;50.882;5.350;2022-09-01T16:18:45;30.10;68.90
18753;DHT22;9505;50.882;5.350;2022-09-01T16:23:47;31.00;67.90
18753;DHT22;9505;50.882;5.350;2022-09-01T16:26:14;31.30;68.10
18753;DHT22;9505;50.882;5.350;2022-09-01T16:28:47;31.30;66.90
18753;DHT22;9505;50.882;5.350;2022-09-01T16:31:18;31.20;67.30
18753;DHT22;9505;50.882;5.350;2022-09-01T16:33:49;31.10;66.80
18753;DHT22;9505;50.882;5.350;2022-09-01T16:42:05;30.20;68.80
18753;DHT22;9505;50.882;5.350;2022-09-01T16:47:51;30.10;69.20
18753;DHT22;9505;50.882;5.350;2022-09-01T16:59:18;28.90;71.10
18753;DHT22;9505;50.882;5.350;2022-09-01T17:01:57;29.00;71.80
18753;DHT22;9505;50.882;5.350;2022-09-01T17:07:58;28.80;73.00
18753;DHT22;9505;50.882;5.350;2022-09-01T17:12:49;28.20;74.10
18753;DHT22;9505;50.882;5.350;2022-09-01T17:15:19;27.80;74.40
18753;DHT22;9505;50.882;5.350;2022-09-01T17:18:08;27.60;75.60
18753;DHT22;9505;50.882;5.350;2022-09-01T17:20:41;27.30;75.30
18753;DHT22;9505;50.882;5.350;2022-09-01T17:23:10;27.10;76.70
18753;DHT22;9505;50.882;5.350;2022-09-01T17:25:48;26.90;77.70
18753;DHT22;9505;50.882;5.350;2022-09-01T17:28:21;26.80;77.90
18753;DHT22;9505;50.882;5.350;2022-09-01T17:31:02;26.70;79.00
18753;DHT22;9505;50.882;5.350;2022-09-01T17:37:03;26.30;80.90
18753;DHT22;9505;50.882;5.350;2022-09-01T17:48:11;25.70;80.30
18753;DHT22;9505;50.882;5.350;2022-09-01T17:51:02;25.60;80.70
18753;DHT22;9505;50.882;5.350;2022-09-01T18:02:43;25.20;82.30
18753;DHT22;9505;50.882;5.350;2022-09-01T18:05:14;25.10;83.00